Fort Reliance, Canada
Current Conditions -  °F | °C
As of 2:00 AM on Monday 24 Nov 2014 (Local Time) from CYZF Reporting Station
Clear Clear  
Wind Chill: -42°   Ceiling: Unl
Heat Index: -24°   Visibility: 15mi
Dew Point: -29°   Wind: 7mph
Humidity: 76%   Direction: 320°NW
Pressure: 30.05"   Gusts: NA
Location:  62.71°N, 109.15°W
Report Text: CYZF 240900Z 32006KT 15SM SKC M31/M34 A3005 RMK SLP207
Loading
Personal Weather Stations






























Interactive Weather Map New forecast layout! Learn more

10-Day Weather Forecast

Advertisements
Track Severe Weather on mobile